Tiempo atmosférico en la estación meteorológica de Bielsa, Huesca (990 m.)



Fecha
DESCASC
Temp. máxima en grados centígrados (hora)
DESCASC
Temp. mínima en grados centígrados (hora)
DESCASC
Temp. media en grados centígrados
DESCASC
Racha de viento máxima en m/sg (hora)
DESCASC
Velocidad máxima media en intervalos de 10 minutos(hora)
DESCASC
Precipitaciones diarias en mm
DESCASC
Precipitaciones de 00:00 a 06:00 en mm
DESCASC
Precipitaciones de 06:00 a 12:00 en mm
DESCASC
Precipitaciones de 12:00 a 18:00 en mm
DESCASC
Precipitaciones de 18:00 a 24:00 en mm
DESCASC
05-12-2019 12.8 (13:30) 0.4 (23:59) 6.6 12.22 (16:40) 5.83 (15:30) 0 0 0 0 0
04-12-2019 10.8 (15:20) -1.6 (00:10) 4.6 11.67 (15:20) 6.11 (15:20) 0 0 0 0 0
03-12-2019 7.9 (12:50) -3 (-00:0) 2.5 5.28 (04:50) 1.94 (14:40) 0 0 0 0 0
02-12-2019 10.2 (13:40) -1 (-00:0) 4.6 12.22 (11:40) 6.39 (11:40) 0 0 0 0 0
01-12-2019 9.6 (12:40) 0 (00:00) 4.8 7.78 (18:20) 3.33 (21:00) 0.4 0.4 0 0 0
30-11-2019 8.8 (21:00) -0.5 (-00:0) 4.2 12.78 (21:00) 4.17 (21:00) 27 0 0 1.8 25.2
29-11-2019 11.1 (12:20) 0.7 (00:00) 5.9 5 (08:50) 2.5 (02:20) 0 0 0 0 0
28-11-2019 10.9 (12:40) 4.6 (00:00) 7.7 5.56 (18:20) 2.78 (18:50) 13 0.8 0 5.4 6.8
27-11-2019 10.5 (13:00) 2.7 (00:00) 6.6 8.61 (20:20) 3.33 (02:50) 6.2 5.2 0 0 1
26-11-2019 13.1 (13:10) 0.7 (00:00) 6.9 10.56 (21:40) 4.17 (22:00) 3.6 0 0 0 3.6
25-11-2019 13.9 (13:40) 0 (00:00) 6.9 7.5 (02:20) 3.61 (02:10) 0 0 0 0 0
24-11-2019 10.6 (11:40) 0.9 (00:00) 5.8 11.39 (11:50) 5.56 (11:50) 0 0 0 0 0
23-11-2019 5.4 (11:40) 2.2 (00:00) 3.8 11.39 (21:00) 4.17 (20:50) 12.6 7.4 1.6 3.4 0.2
22-11-2019 5.9 (12:10) 1.5 (00:00) 3.7 11.11 (23:00) 4.17 (23:00) 24 0 0 5.2 18.8
21-11-2019 7.6 (13:50) -1.3 (-00:0) 3.1 6.39 (14:00) 2.5 (03:10) 1.6 0 0 1.2 0.4
20-11-2019 8.3 (14:00) -4.5 (-00:0) 1.9 5.56 (16:10) 1.94 (12:30) 0 0 0 0 0
19-11-2019 8.1 (13:20) -3.7 (-00:0) 2.2 7.5 (04:20) 2.78 (04:30) 0 0 0 0 0
18-11-2019 7.8 (14:00) -0.6 (-00:0) 3.6 13.61 (17:30) 5.56 (17:30) 0 0 0 0 0
17-11-2019 6.8 (13:30) -1.3 (-00:0) 2.8 5 (04:30) 1.94 (00:30) 0 0 0 0 0
16-11-2019 4.1 (12:30) -5.2 (-00:0) -0.5 6.67 (13:00) 2.5 (10:10) 0 0 0 0 0
15-11-2019 2.2 (12:30) -3.5 (-00:0) -0.6 6.39 (04:10) 3.33 (12:50) 1 0 0 0.8 0.2
14-11-2019 6.2 (13:40) -1.1 (-00:0) 2.5 8.61 (09:10) 4.17 (08:50) 24.6 12 8.4 4.2 0
13-11-2019 12.2 (13:50) -1.3 (-00:0) 5.4 12.22 (12:30) 5 (14:40) 0 0 0 0 0
12-11-2019 10.8 (13:10) 0.8 (00:00) 5.8 10.28 (02:40) 4.17 (00:30) 0 0 0 0 0
11-11-2019 12.2 (12:00) 1.2 (01:20) 6.7 12.78 (20:40) 4.72 (20:00) 0 0 0 0 0
10-11-2019 8.8 (14:10) 0.5 (00:00) 4.7 12.22 (02:20) 5 (23:10) 0.2 0.2 0 0 0
09-11-2019 9.9 (13:50) 0.6 (00:00) 5.2 6.39 (14:50) 2.5 (11:40) 2.4 1.2 0 0.4 0.8
08-11-2019 7.3 (12:10) 0.2 (00:00) 3.8 6.67 (12:40) 2.5 (12:40) 9.6 0 0 4.4 5.2
07-11-2019 7.3 (12:10) 2 (00:00) 4.7 8.33 (12:40) 2.78 (12:00) 2.6 0.2 0.2 2.2 0
06-11-2019 13.3 (13:50) 1.9 (00:00) 7.6 5.56 (12:50) 2.22 (17:00) 2.6 2.4 0.2 0 0

Gráficas

Temp. máximas Temp. mínimas Temp. medias Precipitaciones Rachas de viento máximas Velocidades máximas media en intervalos de 10 minutos

Datos horarios

Fecha y hora oficial Temperatura (ºC) Velocidad del viento (km/h) Dirección del viento Racha (km/h) Dirección de racha Precipitación (mm) Presión (hPa) Tendencia (hPa) Humedad (%)
2019-12-05 23:00:00 0.9 2 Noroeste 13 Nordeste 0 909.1 1.1 93
2019-12-05 22:00:00 1.2 2 Noroeste 9 Oeste 0 908.8 1.4 94
2019-12-05 21:00:00 1.8 3 Noroeste 14 Nordeste 0 908.5 1.8 93
2019-12-05 20:00:00 2.8 3 Noroeste 6 Noroeste 0 908 2.4 91
2019-12-05 19:00:00 4.1 0 Calma 14 Nordeste 0 907.4 2.8 83
2019-12-05 18:00:00 6.1 3 Noroeste 19 Noroeste 0 906.7 2.5 76
2019-12-05 17:00:00 10.1 15 Noroeste 44 Noroeste 0 905.6 1.6 49
2019-12-05 16:00:00 11.3 20 Noroeste 43 Noroeste 0 904.6 0.3 48
2019-12-05 15:00:00 10.9 5 Este 15 Sudeste 0 904.2 -0.6 56
2019-12-05 14:00:00 11.6 6 Sudeste 18 Sudeste 0 904 -0.5 52
2019-12-05 13:00:00 11.3 7 Este 22 Este 0 904.3 0.2 56
2019-12-05 12:00:00 8 5 Este 11 Este 0 904.8 1.5 69
2019-12-05 11:00:00 5.7 3 Noroeste 11 Este 0 904.5 1.8 81
2019-12-05 10:00:00 3.5 3 Sur 14 Nordeste 0 904.1 1.8 92
2019-12-05 09:00:00 2.6 3 Este 16 Nordeste 0 903.3 1.5 93
2019-12-05 08:00:00 3 3 Norte 14 Nordeste 0 902.7 1.3 91
2019-12-05 07:00:00 2.9 3 Nordeste 15 Nordeste 0 902.3 1.4 91
2019-12-05 06:00:00 3 0 Calma 8 Noroeste 0 901.8 1.1 90
2019-12-05 05:00:00 3.1 2 Noroeste 14 Nordeste 0 901.4 1 88
2019-12-05 04:00:00 3 4 Este 13 Noroeste 0 900.9 0.4 88
2019-12-05 03:00:00 3 2 Norte 14 Nordeste 0 900.7 1.2 86
2019-12-05 02:00:00 3.4 4 Noroeste 17 Norte 0 900.4 1.2 82
2019-12-05 01:00:00 3.1 2 Noroeste 9 Norte 0 900.5 2 84
2019-12-05 00:00:00 3.1 2 Noroeste 15 Norte 0 899.5 1 82
2019-12-04 23:00:00 2.1 3 Noroeste 14 Nordeste 0 899.2 1.1 86
2019-12-04 22:00:00 3.7 6 Noroeste 18 Noroeste 0 898.5 0.7 78
2019-12-04 21:00:00 4.3 5 Noroeste 13 Norte 0 898.5 1.6 77
2019-12-04 20:00:00 5.2 2 Noroeste 8 Norte 0 898.1 1.6 76
2019-12-04 19:00:00 7.5 8 Este 24 Noroeste 0 897.8 1.7 65
2019-12-04 18:00:00 8.6 9 Noroeste 32 Oeste 0 896.9 1.1 60
2019-12-04 17:00:00 9.9 15 Noroeste 35 Noroeste 0 896.5 0.3 44
2019-12-04 16:00:00 10.4 10 Noroeste 42 Noroeste 0 896.1 -1.4 44
2019-12-04 15:00:00 9.8 9 Norte 39 Noroeste 0 895.8 -2 51
2019-12-04 14:00:00 8.2 3 Sur 15 Nordeste 0 896.2 -1.9 68
2019-12-04 13:00:00 6.9 6 Noroeste 14 Norte 0 897.5 -1.3 68
2019-12-04 12:00:00 4.7 5 Noroeste 14 Nordeste 0 897.8 -1.1 79
2019-12-04 11:00:00 3.2 3 Noroeste 15 Norte 0 898.1 -0.8 86
2019-12-04 10:00:00 0.5 3 Nordeste 16 Nordeste 0 898.8 -0.1 98
2019-12-04 09:00:00 -0.9 2 Oeste 16 Nordeste 0 898.9 0 98
2019-12-04 08:00:00 -1.2 2 Norte 15 Nordeste 0 898.9 -0.4 98
2019-12-04 07:00:00 -1.4 3 Noroeste 16 Nordeste 0 898.9 -1.3 97
2019-12-04 06:00:00 -1.4 2 Norte 16 Nordeste 0 898.9 -1.9 95
2019-12-04 05:00:00 -0.8 4 Noroeste 15 Este 0 899.3 -2.4 94
2019-12-04 04:00:00 -0.6 3 Noroeste 16 Nordeste 0 900.2 -2.5 91
2019-12-04 03:00:00 -0.1 2 Sudeste 17 Este 0 900.8 -2.5 87
2019-12-04 02:00:00 0.3 6 Noroeste 21 Oeste 0 901.7 -1.5 84
2019-12-04 01:00:00 -0.9 3 Noroeste 16 Norte 0 902.7 -0.3 88
2019-12-04 00:00:00 -1.5 2 Oeste 15 Nordeste 0 903.3 0.6 91
2019-12-03 23:00:00 -1.3 0 Calma 14 Nordeste 0 903.2 0.5 91
2019-12-03 22:00:00 -1 3 Norte 15 Oeste 0 903 0.2 89
2019-12-03 21:00:00 -0.9 3 Sudeste 12 Norte 0 902.7 0 89
2019-12-03 20:00:00 -0.7 4 Noroeste 14 Este 0 902.7 0.3 89
2019-12-03 19:00:00 -0.3 0 Calma 14 Nordeste 0 902.8 0.7 85
2019-12-03 18:00:00 0.1 2 Norte 16 Sudoeste 0 902.7 0.8 83
2019-12-03 17:00:00 1.2 3 Noroeste 13 Noroeste 0 902.4 0.1 78
2019-12-03 16:00:00 2 5 Noroeste 14 Noroeste 0 902.1 -0.6 74
2019-12-03 15:00:00 3 6 Noroeste 13 Noroeste 0 901.9 -1.5 65
2019-12-03 14:00:00 4.3 5 Noroeste 8 Noroeste 0 902.3 -1.4 66
2019-12-03 13:00:00 6.3 4 Noroeste 14 Sudeste 0 902.7 -1 59
2019-12-03 12:00:00 6.1 0 Calma 13 Nordeste 0 903.4 0 51
2019-12-03 11:00:00 3.7 2 Oeste 14 Este 0 903.7 0.5 62
2019-12-03 10:00:00 -1.2 0 Calma 14 Este 0 903.7 0.6 89
2019-12-03 09:00:00 -2.9 2 Norte 14 Nordeste 0 903.4 0.5 88
2019-12-03 08:00:00 -2.7 5 Noroeste 14 Nordeste 0 903.2 0.1 87
2019-12-03 07:00:00 -2.8 5 Noroeste 14 Nordeste 0 903.1 -0.4 91
2019-12-03 06:00:00 -2.7 2 Noroeste 15 Nordeste 0 902.9 -0.7 89
2019-12-03 05:00:00 -2.4 0 Calma 19 Oeste 0 903.1 -0.9 89
2019-12-03 04:00:00 -2.1 3 Oeste 14 Nordeste 0 903.5 -0.9 89
2019-12-03 03:00:00 -1.7 6 Noroeste 15 Norte 0 903.6 -0.8 87
2019-12-03 02:00:00 -1.4 3 Noroeste 18 Oeste 0 904 -0.3 88
2019-12-03 01:00:00 -1.4 2 Noroeste 17 Nordeste 0 904.4 0.1 89
2019-12-03 00:00:00 -1 3 Oeste 16 Oeste 0 904.4 0.3 88
2019-12-02 23:00:00 -0.2 6 Noroeste 14 Nordeste 0 904.3 0.3 83
2019-12-02 22:00:00 0.8 6 Noroeste 22 Norte 0 904.3 0.8 78
2019-12-02 21:00:00 0.9 4 Noroeste 15 Nordeste 0 904.1 0.8 78
2019-12-02 20:00:00 1.8 4 Noroeste 26 Norte 0 904 1.2 75
2019-12-02 19:00:00 3.3 10 Norte 25 Norte 0 903.5 1 68
2019-12-02 18:00:00 4.1 10 Noroeste 29 Noroeste 0 903.3 1.2 63
2019-12-02 17:00:00 4.7 9 Norte 29 Noroeste 0 902.8 0.7 64
2019-12-02 16:00:00 5.3 8 Noroeste 27 Noroeste 0 902.5 -0.1 62
2019-12-02 15:00:00 6 2 Noroeste 18 Noroeste 0 902.1 -1 65
2019-12-02 14:00:00 8.3 7 Noroeste 33 Noroeste 0 902.1 -1 51
2019-12-02 13:00:00 9.9 14 Noroeste 36 Noroeste 0 902.6 -0.2 41
2019-12-02 12:00:00 9 17 Noroeste 44 Noroeste 0 903.1 0.4 44
2019-12-02 11:00:00 7.8 16 Noroeste 35 Noroeste 0 903.1 0.8 49
2019-12-02 10:00:00 3.8 9 Noroeste 25 Norte 0 902.8 0.9 67
2019-12-02 09:00:00 2.9 13 Norte 33 Noroeste 0 902.7 1.1 65
2019-12-02 08:00:00 2.5 15 Norte 35 Norte 0 902.3 0.8 68
2019-12-02 07:00:00 2.4 18 Norte 35 Norte 0 901.9 0.4 69
2019-12-02 06:00:00 2.5 17 Norte 36 Norte 0 901.6 0.2 69
2019-12-02 05:00:00 2 12 Norte 28 Norte 0 901.5 0.4 72
2019-12-02 04:00:00 0.4 8 Norte 21 Norte 0 901.5 0.4 85
2019-12-02 03:00:00 0.4 4 Noroeste 22 Noroeste 0 901.4 0.4 86
2019-12-02 02:00:00 -0.4 4 Norte 19 Noroeste 0 901.1 0.4 94
2019-12-02 01:00:00 0.2 4 Oeste 14 Nordeste 0 901.1 0.8 91
2019-12-02 00:00:00 0 2 Sur 13 Noroeste 0 901 1.1 93
2019-12-01 23:00:00 0.4 2 Noroeste 15 Noroeste 0 900.7 1.2 92
2019-12-01 22:00:00 1.7 4 Oeste 27 Noroeste 0 900.3 1.6 84
2019-12-01 21:00:00 2.5 12 Noroeste 26 Noroeste 0 899.9 1.7 78
2019-12-01 20:00:00 2.5 6 Noroeste 24 Norte 0 899.5 1.5 82
2019-12-01 19:00:00 2.9 8 Norte 28 Noroeste 0 898.7 1 83
2019-12-01 18:00:00 3 6 Norte 17 Noroeste 0 898.2 0.7 88
2019-12-01 17:00:00 3.6 3 Noroeste 10 Norte 0 898 0.2 93
2019-12-01 16:00:00 5 4 Noroeste 10 Norte 0 897.7 -0.1 87
2019-12-01 15:00:00 6 3 Oeste 5 Noroeste 0 897.5 -1.1 90
2019-12-01 14:00:00 6.6 2 Oeste 14 Sudeste 0 897.8 -1.3 85
2019-12-01 13:00:00 9.2 3 Oeste 10 Sudeste 0 897.8 -1.6 73
2019-12-01 12:00:00 8 2 Sudoeste 8 Sur 0 898.6 -0.2 76
2019-12-01 11:00:00 6 3 Noroeste 16 Este 0 899.1 1 83
2019-12-01 10:00:00 2.6 0 Calma 14 Norte 0 899.4 1.7 97
2019-12-01 09:00:00 1.5 5 Noroeste 12 Noroeste 0 898.8 1 98
2019-12-01 08:00:00 0.7 2 Norte 14 Nordeste 0 898.1 -0.1 98
2019-12-01 07:00:00 1.7 3 Noroeste 14 Nordeste 0 897.7 -1 97
2019-12-01 06:00:00 3.1 2 Noroeste 14 Norte 0 897.8 -0.9 97
2019-12-01 05:00:00 3.6 2 Noroeste 14 Oeste 0 898.2 -0.5 97
2019-12-01 04:00:00 3.5 2 Noroeste 15 Sudoeste 0 898.7 -1.3 96
2019-12-01 03:00:00 4.8 0 Calma 21 Norte 0 898.7 -1 93
2019-12-01 02:00:00 5.5 4 Sudeste 18 Sudeste 0.2 898.7 -0.7 94
2019-12-01 01:00:00 6.2 2 Sudoeste 14 Nordeste 0.2 900 -0.1 96
2019-12-01 00:00:00 6.7 4 Nordeste 13 Sur 0.4 899.7 0.6 96
2019-11-30 23:00:00 7 3 Sudeste 18 Este 0.8 899.4 0 96
2019-11-30 22:00:00 7.4 6 Norte 41 Este 9.4 900.1 0.4 90
2019-11-30 21:00:00 8.7 15 Este 46 Este 8.6 899.1 -1.6 91
2019-11-30 20:00:00 6.1 4 Sudeste 12 Nordeste 4.8 899.4 -2.1 96
2019-11-30 19:00:00 5.9 2 Noroeste 8 Este 1.2 899.7 -2.6 96
2019-11-30 18:00:00 6 3 Noroeste 15 Nordeste 0.8 900.7 -2.3 96
2019-11-30 17:00:00 6.4 0 Calma 5 Sur 0.8 901.5 -2.2 94
2019-11-30 16:00:00 6.7 2 Noroeste 13 Norte 0.2 902.3 -2.6 89
2019-11-30 15:00:00 7.4 0 Calma 16 Noroeste 0 903 -3 84
2019-11-30 14:00:00 7.3 9 Norte 19 Noroeste 0 903.7 -2.7 78
2019-11-30 13:00:00 7.3 8 Norte 19 Noroeste 0 904.9 -1.4 75
2019-11-30 12:00:00 6.5 9 Norte 22 Norte 0 906 0 79
2019-11-30 11:00:00 4.8 3 Norte 15 Este 0 906.4 0.4 77
2019-11-30 10:00:00 3 4 Noroeste 15 Oeste 0 906.3 0 82
2019-11-30 09:00:00 1.5 4 Noroeste 14 Nordeste 0 906 -0.7 92
2019-11-30 08:00:00 0.7 0 Calma 14 Nordeste 0 906 -0.4 93
2019-11-30 07:00:00 0.5 4 Noroeste 15 Este 0 906.3 -0.6 93
2019-11-30 06:00:00 -0.1 4 Noroeste 13 Nordeste 0 906.7 -0.2 96
2019-11-30 05:00:00 -0.2 3 Noroeste 15 Este 0 906.4 -0.8 94
2019-11-30 04:00:00 -0.1 2 Sur 15 Norte 0 906.9 -0.4 93
2019-11-30 03:00:00 0 4 Noroeste 15 Norte 0 906.9 -0.6 95
2019-11-30 02:00:00 0.3 4 Oeste 12 Noroeste 0 907.2 -0.1 95
2019-11-30 01:00:00 1.1 2 Noroeste 20 Noroeste 0 907.3 0.1 92
2019-11-30 00:00:00 0.7 3 Noroeste 11 Nordeste 0 907.5 0.3 95
2019-11-29 23:00:00 0.8 4 Noroeste 14 Nordeste 0 907.3 0.3 95
2019-11-29 22:00:00 1 4 Oeste 13 Norte 0 907.2 0.7 94
2019-11-29 21:00:00 1.4 3 Noroeste 17 Noroeste 0 907.2 1.4 93
2019-11-29 20:00:00 1.8 5 Noroeste 14 Nordeste 0 907 1.9 93
2019-11-29 19:00:00 2.3 3 Noroeste 17 Noroeste 0 906.5 2 89
2019-11-29 18:00:00 3 6 Noroeste 15 Noroeste 0 905.8 1.7 87
2019-11-29 17:00:00 4.1 6 Noroeste 18 Noroeste 0 905.1 1 84
2019-11-29 16:00:00 5.3 7 Noroeste 17 Noroeste 0 904.5 0.3 81
2019-11-29 15:00:00 6.2 6 Noroeste 15 Noroeste 0 904.1 -0.6 80
2019-11-29 14:00:00 7.7 7 Noroeste 12 Noroeste 0 904.1 -0.6 79
2019-11-29 13:00:00 11 4 Oeste 13 Norte 0 904.2 0.1 74
2019-11-29 12:00:00 10.7 3 Oeste 8 Oeste 0 904.7 0.9 76
2019-11-29 11:00:00 8.8 2 Sudoeste 8 Oeste 0 904.7 1.5 83
2019-11-29 10:00:00 4.9 0 Calma 13 Nordeste 0 904.1 1.7 97
2019-11-29 09:00:00 3.7 6 Norte 18 Norte 0 903.8 2.2 97
2019-11-29 08:00:00 3.3 2 Noroeste 12 Norte 0 903.2 2 97
2019-11-29 07:00:00 4.5 0 Calma 4 Norte 0 902.4 1.3 97
2019-11-29 06:00:00 5.2 0 Calma 16 Nordeste 0 901.6 0.7 96
2019-11-29 05:00:00 6 0 Calma 11 Norte 0 901.2 0.4 95
2019-11-29 04:00:00 6.4 5 Norte 10 Noroeste 0 901.1 0.3 94
2019-11-29 03:00:00 6.2 3 Noroeste 17 Norte 0 900.9 0.2 95
2019-11-29 02:00:00 6.2 4 Noroeste 13 Este 0 900.8 0.1 96
2019-11-29 01:00:00 6.4 0 Calma 14 Norte 0 900.8 0.2 94
2019-11-29 00:00:00 6.2 3 Noroeste 12 Norte 0 900.7 0.5 95
2019-11-28 23:00:00 6.4 3 Norte 17 Norte 0.2 900.7 0.6 95
2019-11-28 22:00:00 6.5 5 Norte 12 Norte 0 900.6 0.6 94
2019-11-28 21:00:00 6.7 7 Norte 14 Norte 0.2 900.2 1.2 94
2019-11-28 20:00:00 6.9 8 Noroeste 15 Noroeste 0.6 900.1 0.7 93
2019-11-28 19:00:00 7.1 9 Norte 20 Noroeste 5.8 900 0.4 90
2019-11-28 18:00:00 8.1 4 Sudeste 20 Este 4.2 899 -0.3 95
2019-11-28 17:00:00 9 2 Oeste 20 Sudoeste 1.2 899.4 0.1 89
2019-11-28 16:00:00 9.6 3 Noroeste 8 Sudoeste 0 899.6 -0.2 86
2019-11-28 15:00:00 9.9 2 Sudoeste 14 Noroeste 0 899.3 -0.7 85
2019-11-28 14:00:00 9.8 7 Noroeste 12 Noroeste 0 899.3 -1 77
2019-11-28 13:00:00 9.4 4 Noroeste 17 Sudoeste 0 899.8 -0.3 81
2019-11-28 12:00:00 8.7 0 Calma 8 Noroeste 0 900 0.6 78
2019-11-28 11:00:00 8.9 3 Sur 14 Nordeste 0 900.3 1.5 81
2019-11-28 10:00:00 5.7 2 Noroeste 14 Nordeste 0 900.1 1.8 96
2019-11-28 09:00:00 4.9 3 Oeste 12 Norte 0 899.4 1.5 96
2019-11-28 08:00:00 4.6 2 Sudeste 6 Nordeste 0 898.8 1.2 97
2019-11-28 07:00:00 4.7 2 Sudeste 13 Nordeste 0 898.3 0.9 96
2019-11-28 06:00:00 4.8 0 Calma 8 Norte 0 897.9 0.6 96
2019-11-28 05:00:00 5 2 Sudeste 5 Oeste 0 897.6 0.1 97
2019-11-28 04:00:00 5.1 0 Calma 13 Nordeste 0.4 897.4 0 97
2019-11-28 03:00:00 5.3 0 Calma 5 Oeste 0 897.3 -0.1 97
2019-11-28 02:00:00 5.5 0 Calma 5 Norte 0 897.5 0.2 97
2019-11-28 01:00:00 5.6 2 Sudeste 5 Noroeste 0.4 897.4 0.2 96
2019-11-28 00:00:00 5.7 3 Este 14 Nordeste 0.4 897.4 0.2 95
2019-11-27 23:00:00 5.7 5 Norte 27 Este 0 897.3 0 94
2019-11-27 22:00:00 6.1 5 Sur 13 Sur 0.2 897.2 0.2 93
2019-11-27 21:00:00 6.3 4 Sudeste 31 Este 0.2 897.2 0.7 92
2019-11-27 20:00:00 6.6 8 Sudeste 24 Este 0.2 897.3 1 88
2019-11-27 19:00:00 6.8 3 Norte 8 Noroeste 0 897 1.8 87
2019-11-27 18:00:00 7.8 3 Sur 17 Sudeste 0 896.5 1.4 79
2019-11-27 17:00:00 9 6 Sudeste 25 Este 0 896.3 1.1 67
2019-11-27 16:00:00 9.7 11 Este 26 Este 0 895.2 -0.4 64
2019-11-27 15:00:00 10.1 5 Sudeste 18 Sudeste 0 895.1 -0.8 67
2019-11-27 14:00:00 9.9 2 Oeste 15 Nordeste 0 895.2 -0.5 82
2019-11-27 06:00:00 6.3 3 Oeste 26 Este 0.2 892.7 0.7 91
2019-11-27 05:00:00 7.3 3 Sudoeste 18 Este 0.2 892.1 0.6 95
2019-11-27 04:00:00 8.2 7 Este 22 Sudeste 0 892 -0.6 95
2019-11-27 03:00:00 8.6 8 Sudeste 30 Sudeste 4.6 892 -1.8 95
2019-11-27 02:00:00 9 6 Sudeste 25 Este 0.2 891.5 -2.3 93
2019-11-27 01:00:00 8.6 9 Sudeste 22 Este 0 892.6 -1.9 95
2019-11-27 00:00:00 8.8 7 Sur 30 Sudoeste 2.2 893.8 -1.6 92
2019-11-26 23:00:00 8.8 7 Sudeste 37 Este 1.4 893.8 -1.4 91
2019-11-26 22:00:00 10.8 15 Este 38 Este 0 894.5 -1.1 75
2019-11-26 21:00:00 9.2 11 Sudeste 33 Sur 0 895.4 -0.5 83
2019-11-26 20:00:00 8.6 8 Sur 20 Sur 0 895.2 -0.8 79
2019-11-26 19:00:00 7.4 2 Noroeste 12 Noroeste 0 895.6 -1 84
2019-11-26 18:00:00 7.9 0 Calma 13 Oeste 0 895.9 -1.2 80
2019-11-26 17:00:00 9.4 3 Noroeste 6 Sudeste 0 896 -1.5 78
2019-11-26 16:00:00 10.7 6 Este 21 Este 0 896.6 -1.3 65
2019-11-26 15:00:00 11.1 7 Este 13 Este 0 897.1 -1.6 59
2019-11-26 14:00:00 11.3 5 Noroeste 11 Norte 0 897.5 -1.6 54
2019-11-26 13:00:00 12.3 4 Sudeste 13 Sur 0 897.9 -1.6 54
2019-11-26 12:00:00 11.1 2 Oeste 13 Norte 0 898.7 -0.7 59
2019-11-26 11:00:00 8.4 4 Oeste 14 Nordeste 0 899.1 -0.2 69
2019-11-26 10:00:00 3.8 5 Noroeste 14 Este 0 899.5 -0.1 84
2019-11-26 09:00:00 1.5 3 Noroeste 12 Nordeste 0 899.4 0 93
2019-11-26 08:00:00 1.6 6 Noroeste 15 Noroeste 0 899.3 -0.8 91
2019-11-26 07:00:00 0.9 3 Noroeste 15 Norte 0 899.6 -0.6 95
2019-11-26 06:00:00 0.8 4 Noroeste 14 Noroeste 0 899.4 -0.7 95
2019-11-26 05:00:00 1 4 Noroeste 12 Nordeste 0 900.1 -0.2 97
2019-11-26 04:00:00 1 4 Oeste 14 Nordeste 0 900.2 -0.5 96
2019-11-26 03:00:00 1.1 2 Noroeste 15 Nordeste 0 900.1 -0.9 95
2019-11-26 02:00:00 1.4 3 Noroeste 15 Noroeste 0 900.3 -0.8 95
2019-11-26 01:00:00 1.9 4 Oeste 15 Nordeste 0 900.7 -0.4 93
2019-11-26 00:00:00 1.6 2 Noroeste 13 Oeste 0 901 0.1 95
2019-11-25 23:00:00 2 4 Noroeste 11 Noroeste 0 901.1 0.6 93
2019-11-25 22:00:00 2.2 4 Noroeste 14 Nordeste 0 901.1 0.9 93
2019-11-25 21:00:00 2.8 4 Noroeste 13 Noroeste 0 900.9 1.2 91
2019-11-25 20:00:00 3.6 4 Oeste 13 Norte 0 900.5 1.5 88
2019-11-25 19:00:00 4.5 5 Noroeste 14 Noroeste 0 900.2 1.7 86
2019-11-25 18:00:00 5.8 4 Noroeste 13 Noroeste 0 899.7 1.8 82
2019-11-25 17:00:00 7.5 5 Noroeste 13 Noroeste 0 899 1.4 77
2019-11-25 16:00:00 8.9 5 Noroeste 13 Noroeste 0 898.5 0.7 73
2019-11-25 15:00:00 9.1 3 Noroeste 7 Noroeste 0 897.9 -0.2 77
2019-11-25 14:00:00 11.9 0 Calma 12 Este 0 897.6 -0.7 64
2019-11-25 13:00:00 13.6 3 Sudoeste 14 Este 0 897.8 -0.1 59
2019-11-25 12:00:00 11.6 3 Sudeste 10 Este 0 898.1 0.2 55
2019-11-25 11:00:00 8.6 4 Sudeste 8 Este 0 898.3 0.7 70
2019-11-25 10:00:00 3.4 4 Este 14 Sudoeste 0 897.9 0.6 95
2019-11-25 09:00:00 0.7 2 Noroeste 14 Nordeste 0 897.9 1 96
2019-11-25 08:00:00 0.3 2 Noroeste 15 Nordeste 0 897.6 0.6 96
2019-11-25 07:00:00 0.1 3 Noroeste 8 Noroeste 0 897.3 0.2 94
2019-11-25 06:00:00 0.6 0 Calma 14 Noroeste 0 896.9 0 91
2019-11-25 05:00:00 0.8 5 Noroeste 16 Norte 0 897 -0.6 90
2019-11-25 04:00:00 1.4 0 Calma 13 Nordeste 0 897.1 -0.9 86
2019-11-25 03:00:00 2.7 3 Norte 27 Noroeste 0 896.9 -1.6 81
2019-11-25 02:00:00 3.4 9 Norte 20 Norte 0 897.6 -0.3 76
2019-11-25 01:00:00 2.9 6 Norte 19 Norte 0 898 -0.2 78
2019-11-25 00:00:00 2.1 3 Nordeste 9 Noroeste 0 898.5 0.6 86
2019-11-24 23:00:00 2.4 5 Noroeste 18 Norte 0 897.9 0.1 81
2019-11-24 22:00:00 1.3 3 Norte 17 Noroeste 0 898.2 0.9 89
2019-11-24 21:00:00 1.8 4 Noroeste 18 Norte 0 897.9 1.2 86
2019-11-24 20:00:00 3.1 6 Noroeste 13 Noroeste 0 897.8 1.3 82
2019-11-24 19:00:00 4.2 2 Noroeste 14 Nordeste 0 897.3 1.4 80
2019-11-24 18:00:00 5.4 6 Norte 14 Noroeste 0 896.7 0.9 74
2019-11-24 17:00:00 7.8 3 Noroeste 17 Noroeste 0 896.5 0.9 66
2019-11-24 16:00:00 9.2 5 Noroeste 29 Noroeste 0 895.9 -0.1 56
2019-11-24 15:00:00 9.7 13 Noroeste 33 Noroeste 0 895.8 -0.3 44
2019-11-24 14:00:00 10.1 15 Noroeste 35 Noroeste 0 895.6 -0.5 44
2019-11-24 13:00:00 10 18 Noroeste 39 Norte 0 896 0.6 44
2019-11-24 12:00:00 10.4 17 Noroeste 41 Noroeste 0 896.1 1.1 44
2019-11-24 11:00:00 9.7 19 Noroeste 39 Noroeste 0 896.1 1.9 44
2019-11-24 10:00:00 6.2 7 Noroeste 18 Noroeste 0 895.4 1.8 59
2019-11-24 09:00:00 3.2 6 Norte 18 Norte 0 895 1.8 77
2019-11-24 08:00:00 1 3 Sudeste 8 Nordeste 0 894.2 1.4 91
2019-11-24 07:00:00 1 4 Norte 9 Oeste 0 893.6 1.5 89
2019-11-24 06:00:00 2.2 2 Sur 16 Noroeste 0 893.2 1.2 82
2019-11-24 05:00:00 4.4 7 Noroeste 21 Noroeste 0 892.8 1.4 64
2019-11-24 04:00:00 5.8 10 Noroeste 30 Norte 0 892.1 0.7 57
2019-11-24 03:00:00 3.8 5 Oeste 14 Sudoeste 0 892 1 78
2019-11-24 02:00:00 3.9 4 Este 17 Noroeste 0 891.4 0.8 80
2019-11-24 01:00:00 5.3 9 Noroeste 31 Noroeste 0 891.4 1.1 64
2019-11-24 00:00:00 4.1 11 Noroeste 31 Noroeste 0 891 1.7 69
2019-11-23 23:00:00 3.3 5 Noroeste 22 Norte 0 890.6 1.8 71
2019-11-23 22:00:00 4.7 10 Noroeste 38 Norte 0 890.3 2.4 57
2019-11-23 21:00:00 5.1 13 Noroeste 41 Noroeste 0.2 889.3 2.8 55
2019-11-23 20:00:00 2.3 5 Norte 22 Norte 0 888.8 3.6 86
2019-11-23 19:00:00 2.7 2 Este 7 Norte 0 887.9 3.4 95
2019-11-23 18:00:00 3.9 3 Sur 16 Noroeste 0 886.5 3.2 93
2019-11-23 17:00:00 4.7 3 Noroeste 14 Nordeste 0 885.2 2.6 95
2019-11-23 16:00:00 5.2 4 Noroeste 15 Nordeste 0.4 884.5 2.1 91
2019-11-23 15:00:00 5 4 Noroeste 18 Este 0.6 883.3 1.3 92
2019-11-23 14:00:00 5 3 Este 11 Norte 0.8 882.6 0.7 92
2019-11-23 13:00:00 4.5 4 Noroeste 12 Norte 1.6 882.4 1.4 90
2019-11-23 12:00:00 5.1 5 Norte 12 Oeste 0.4 882 2.1 90
2019-11-23 11:00:00 4.5 5 Noroeste 12 Norte 0.8 881.9 2.8 93
2019-11-23 10:00:00 3.7 4 Noroeste 14 Nordeste 0.2 881 2.5 95
2019-11-23 09:00:00 3.3 3 Oeste 13 Nordeste 0 879.9 1.8 96
2019-11-23 08:00:00 2.8 3 Noroeste 8 Noroeste 0.2 879.1 1 97
2019-11-23 07:00:00 2.9 2 Noroeste 21 Noroeste 0 878.5 0.5 95
2019-11-23 06:00:00 3 3 Noroeste 14 Nordeste 0.4 878.1 -0.1 97
2019-11-23 05:00:00 3.1 2 Noroeste 15 Norte 1.6 878.1 -0.4 96
2019-11-23 04:00:00 3 4 Noroeste 17 Norte 1.4 878 -0.8 96
2019-11-23 03:00:00 3 4 Norte 14 Oeste 0.2 878.2 -1.1 97
2019-11-23 02:00:00 3.1 2 Noroeste 20 Norte 0.4 878.5 0.2 97
2019-11-23 01:00:00 2.9 3 Este 13 Sudeste 3.4 878.8 -1.3 97
2019-11-23 00:00:00 2.8 2 Sur 32 Noroeste 6.6 879.3 -2.1 96
2019-11-22 23:00:00 2.8 15 Norte 40 Noroeste 1.6 878.3 -4.2 96
2019-11-22 22:00:00 2.5 8 Norte 16 Norte 2.4 880.1 -3.3 97
2019-11-22 21:00:00 2.5 0 Calma 23 Norte 1.4 881.4 -2.2 95
2019-11-22 20:00:00 2.6 5 Noroeste 18 Norte 2.4 882.5 -1.4 94
2019-11-22 19:00:00 2.6 8 Norte 23 Norte 4.4 883.4 -0.7 93
2019-11-22 18:00:00 3.3 11 Norte 26 Norte 2.6 883.6 -1.3 92
2019-11-22 17:00:00 4.8 5 Norte 28 Este 1.2 883.9 -2 91
2019-11-22 16:00:00 5.3 8 Sudeste 31 Este 0.8 884.1 -3.1 87
2019-11-22 15:00:00 5.3 10 Sudeste 32 Este 0.6 884.9 -3.4 86
2019-11-22 14:00:00 5.6 7 Sudeste 27 Este 0 885.9 -3.8 84
2019-11-22 13:00:00 5.6 9 Sudeste 28 Este 0 887.2 -3.4 81
2019-11-22 12:00:00 5.8 6 Sudeste 24 Sudeste 0 888.3 -2.8 77
2019-11-22 11:00:00 5.1 6 Sudeste 17 Sur 0 889.7 -1.8 85
2019-11-22 10:00:00 3.7 4 Sur 14 Sudeste 0 890.6 -1.3 95
2019-11-22 09:00:00 2.8 4 Sudeste 14 Sur 0 891.1 -1.2 98
2019-11-22 08:00:00 2.1 2 Norte 14 Nordeste 0 891.5 -1.2 98
2019-11-22 07:00:00 1.8 0 Calma 13 Nordeste 0 891.9 -1.2 98
2019-11-22 06:00:00 1.7 0 Calma 14 Nordeste 0 892.3 -1.4 98
2019-11-22 05:00:00 1.8 3 Norte 14 Nordeste 0 892.7 -1.4 98
2019-11-22 04:00:00 1.8 2 Noroeste 14 Nordeste 0 893.1 -1.3 98
2019-11-22 03:00:00 1.7 0 Calma 14 Nordeste 0 893.7 -1 98
2019-11-22 02:00:00 1.9 0 Calma 5 Noroeste 0 894.1 -0.8 98
2019-11-22 01:00:00 1.8 3 Noroeste 13 Nordeste 0 894.4 -0.4 98
2019-11-22 00:00:00 1.5 0 Calma 15 Nordeste 0 894.7 0.1 98
2019-11-21 23:00:00 1.7 2 Noroeste 14 Nordeste 0 894.9 0.5 97
2019-11-21 22:00:00 2 0 Calma 14 Oeste 0.2 894.8 0.7 97
2019-11-21 21:00:00 2.4 0 Calma 18 Sudoeste 0.2 894.6 0.7 97
2019-11-21 20:00:00 2.3 0 Calma 10 Norte 0 894.4 0.8 97
2019-11-21 19:00:00 2.3 2 Noroeste 14 Nordeste 0 894.1 0.6 96
2019-11-21 18:00:00 3 3 Noroeste 13 Nordeste 0.2 893.9 1 94
2019-11-21 17:00:00 3.9 2 Noroeste 8 Noroeste 1 893.6 0.8 91
2019-11-21 16:00:00 5.7 5 Sur 18 Sur 0 893.5 0.4 80
2019-11-21 15:00:00 7.1 5 Sudeste 19 Sur 0 892.9 -0.9 61
2019-11-21 14:00:00 7.5 7 Sudeste 23 Este 0 892.8 -1.2 59
2019-11-21 13:00:00 6.9 5 Sudeste 21 Este 0 893.1 -1.2 63
2019-11-21 12:00:00 5.8 8 Sudeste 21 Sudeste 0 893.8 -0.4 68
2019-11-21 11:00:00 5.7 2 Sur 18 Noroeste 0 894 0 68
2019-11-21 10:00:00 2.1 2 Sudoeste 16 Sudoeste 0 894.3 0.4 84
2019-11-21 09:00:00 1.1 3 Este 13 Norte 0 894.2 0.2 88
2019-11-21 08:00:00 -- -- -- -- -- -- -- -- --
2019-11-21 07:00:00 -- -- -- -- -- -- -- -- --
2019-11-21 06:00:00 -- -- -- -- -- -- -- -- --
2019-11-21 05:00:00 -- -- -- -- -- -- -- -- --
2019-11-21 04:00:00 -- -- -- -- -- -- -- -- --
2019-11-21 03:00:00 -- -- -- -- -- -- -- -- --
2019-11-21 02:00:00 -- -- -- -- -- -- -- -- --
2019-11-21 01:00:00 -- -- -- -- -- -- -- -- --
2019-11-21 00:00:00 -- -- -- -- -- -- -- -- --
2019-11-20 23:00:00 -- -- -- -- -- -- -- -- --
2019-11-20 22:00:00 -1.7 5 Noroeste 14 Nordeste 0 896 0.3 93
2019-11-20 21:00:00 -1.6 2 Noroeste 14 Sudoeste 0 895.9 0.4 94
2019-11-20 20:00:00 -1 3 Noroeste 14 Nordeste 0 896 0.9 91
2019-11-20 19:00:00 -0.2 0 Calma 14 Nordeste 0 895.7 0.6 86
2019-11-20 18:00:00 1.4 2 Noroeste 13 Nordeste 0 895.5 0.6 80
2019-11-20 17:00:00 3.4 5 Noroeste 20 Este 0 895.1 -0.5 72
2019-11-20 16:00:00 3.8 2 Oeste 14 Nordeste 0 895.1 -1.5 72
2019-11-20 15:00:00 4 4 Noroeste 15 Sudeste 0 894.9 -2.6 67
2019-11-20 14:00:00 7.8 3 Oeste 8 Oeste 0 895.6 -2.4 51
2019-11-20 13:00:00 6.6 3 Oeste 13 Noroeste 0 896.6 -1.6 51
2019-11-20 12:00:00 5.3 2 Sudoeste 15 Sudoeste 0 897.5 -1.1 48
2019-11-20 11:00:00 2.4 3 Sudoeste 10 Este 0 898 -0.5 65
2019-11-20 10:00:00 -0.9 5 Noroeste 13 Nordeste 0 898.2 -0.1 74
2019-11-20 09:00:00 -3.5 5 Noroeste 14 Sudoeste 0 898.6 0 87
2019-11-20 08:00:00 -4.4 2 Noroeste 8 Noroeste 0 898.5 -0.4 91
2019-11-20 07:00:00 -4.2 3 Oeste 13 Sudoeste 0 898.3 -0.8 87
2019-11-20 06:00:00 -4 4 Noroeste 17 Oeste 0 898.6 -0.9 89
2019-11-20 05:00:00 -4.2 0 Calma 14 Nordeste 0 898.9 -0.6 89
2019-11-20 04:00:00 -3.7 4 Noroeste 9 Norte 0 899.1 -1 89
2019-11-20 03:00:00 -3.8 0 Calma 16 Oeste 0 899.5 -0.8 91
2019-11-20 02:00:00 -3.3 5 Noroeste 12 Noroeste 0 899.5 -1.1 86
2019-11-20 01:00:00 -3.3 3 Noroeste 13 Norte 0 900.1 -0.5 89
2019-11-20 00:00:00 -2.9 4 Noroeste 11 Noroeste 0 900.3 0.1 87
2019-11-19 23:00:00 -2.7 3 Noroeste 18 Noroeste 0 900.6 0.2 87
2019-11-19 22:00:00 -2.6 2 Noroeste 14 Nordeste 0 900.6 0.2 90
2019-11-19 21:00:00 -1.8 5 Noroeste 15 Noroeste 0 900.2 0.3 84
2019-11-19 20:00:00 -1.6 2 Norte 14 Norte 0 900.4 0.9 87
2019-11-19 19:00:00 -1.6 2 Noroeste 14 Nordeste 0 900.4 1.1 90
2019-11-19 18:00:00 -0.5 0 Calma 14 Norte 0 899.9 0.8 82
2019-11-19 17:00:00 0.5 3 Noroeste 12 Noroeste 0 899.5 0.4 80
2019-11-19 16:00:00 1.5 6 Noroeste 18 Norte 0 899.3 0 74
2019-11-19 15:00:00 2.2 5 Noroeste 11 Noroeste 0 899.1 -0.9 73
2019-11-19 14:00:00 6.5 3 Oeste 13 Nordeste 0 899.1 -1.5 56
2019-11-19 13:00:00 7.9 3 Oeste 12 Norte 0 899.3 -1.4 46
2019-11-19 12:00:00 7 4 Oeste 13 Este 0 900 -0.6 46
2019-11-19 11:00:00 4.9 4 Oeste 10 Oeste 0 900.6 0 55
2019-11-19 10:00:00 0.8 3 Sudeste 21 Norte 0 900.7 0.2 69
2019-11-19 09:00:00 -2.1 5 Noroeste 22 Norte 0 900.6 0.6 71
2019-11-19 08:00:00 -3.3 2 Este 16 Noroeste 0 900.6 0.5 84
2019-11-19 07:00:00 -3.3 0 Calma 15 Noroeste 0 900.5 0.3 82
2019-11-19 06:00:00 -2.6 2 Sudeste 17 Noroeste 0 900 -0.4 80
2019-11-19 05:00:00 -1.7 3 Sudeste 27 Noroeste 0 900.1 -0.2 74
2019-11-19 04:00:00 -2.2 3 Noroeste 19 Noroeste 0 900.2 -0.2 77
2019-11-19 03:00:00 -2.5 6 Noroeste 15 Noroeste 0 900.4 -0.2 79
2019-11-19 02:00:00 -2.1 4 Noroeste 18 Noroeste 0 900.3 -0.8 78
2019-11-19 01:00:00 -1.2 6 Noroeste 21 Noroeste 0 900.4 -0.6 72
2019-11-19 00:00:00 -0.4 10 Norte 26 Norte 0 900.6 0.1 66
2019-11-18 23:00:00 -0.3 8 Noroeste 26 Noroeste 0 901.1 0.8 68
2019-11-18 22:00:00 0.1 12 Norte 31 Norte 0 901 1.5 67
2019-11-18 21:00:00 0.6 11 Norte 23 Norte 0 900.5 1.5 67
2019-11-18 20:00:00 0.6 7 Norte 20 Norte 0 900.3 2.2 65
2019-11-18 19:00:00 1.6 8 Norte 36 Noroeste 0 899.5 2.1 63
2019-11-18 18:00:00 3.1 16 Noroeste 49 Noroeste 0 899 1.7 50
2019-11-18 17:00:00 2.8 10 Noroeste 31 Noroeste 0 898.1 1.4 62
2019-11-18 16:00:00 4.5 12 Noroeste 30 Oeste 0 897.4 0.4 48
2019-11-18 15:00:00 5.3 17 Noroeste 38 Noroeste 0 897.3 0.2 43
2019-11-18 14:00:00 7.4 6 Noroeste 27 Noroeste 0 896.7 -0.1 50
2019-11-18 13:00:00 7.4 13 Noroeste 33 Noroeste 0 897 0.6 46
2019-11-18 12:00:00 6.8 18 Noroeste 37 Noroeste 0 897.1 1.6 50
2019-11-18 11:00:00 5 14 Noroeste 26 Noroeste 0 896.8 2.2 66
2019-11-18 10:00:00 4.5 12 Noroeste 27 Noroeste 0 896.4 2.2 61
2019-11-18 09:00:00 3.1 12 Norte 23 Norte 0 895.5 1.3 73
2019-11-18 08:00:00 0.8 5 Noroeste 19 Norte 0 894.6 0.8 95
2019-11-18 07:00:00 0.9 5 Norte 18 Noroeste 0 894.2 0.5 98
2019-11-18 06:00:00 0.4 3 Norte 14 Nordeste 0 894.2 0.4 98
2019-11-18 05:00:00 0.3 0 Calma 4 Sudeste 0 893.8 0.1 98
2019-11-18 04:00:00 0.3 2 Noroeste 14 Norte 0 893.7 -0.1 98
2019-11-18 03:00:00 0.1 2 Noroeste 13 Nordeste 0 893.8 0.1 98
2019-11-18 02:00:00 0 0 Calma 14 Nordeste 0 893.7 -0.3 98
2019-11-18 01:00:00 0 0 Calma 14 Nordeste 0 893.8 -0.4 98
2019-11-18 00:00:00 0.3 3 Noroeste 14 Nordeste 0 893.7 -0.3 97
2019-11-17 23:00:00 0.8 0 Calma 14 Nordeste 0 894 -0.3 97
2019-11-17 22:00:00 1.5 2 Sudeste 16 Norte 0 894.2 0.3 96
2019-11-17 21:00:00 1.3 3 Noroeste 13 Nordeste 0 894 0.2 98
2019-11-17 20:00:00 0.6 0 Calma 14 Nordeste 0 894.3 0.9 96
2019-11-17 19:00:00 1 0 Calma 13 Sudoeste 0 893.9 0.4 93
2019-11-17 18:00:00 2 3 Noroeste 15 Norte 0 893.8 0.3 92
2019-11-17 17:00:00 3.1 3 Noroeste 8 Oeste 0 893.4 -0.6 90
2019-11-17 16:00:00 3.3 3 Oeste 14 Norte 0 893.5 -0.9 89
2019-11-17 15:00:00 3.8 4 Noroeste 8 Norte 0 893.5 -1.2 86
2019-11-17 14:00:00 4 4 Oeste 8 Oeste 0 894 -0.7 81
2019-11-17 13:00:00 6.3 5 Oeste 17 Este 0 894.4 -0.7 71
2019-11-17 12:00:00 5.8 4 Sudeste 13 Este 0 894.7 0 68
2019-11-17 11:00:00 2.9 6 Sudeste 13 Sur 0 894.7 0 80
2019-11-17 10:00:00 1.5 0 Calma 16 Sudeste 0 895.1 0.3 95
2019-11-17 09:00:00 -1.2 3 Oeste 14 Nordeste 0 894.7 0.2 97
2019-11-17 08:00:00 -1 2 Norte 6 Norte 0 894.7 -0.1 96
2019-11-17 07:00:00 0.1 2 Sur 13 Norte 0 894.8 -0.5 94
2019-11-17 06:00:00 0.3 4 Norte 10 Norte 0 894.5 -1.1 96
2019-11-17 05:00:00 0.2 3 Norte 18 Norte 0 894.8 -1.1 95
2019-11-17 04:00:00 0.1 2 Sur 17 Nordeste 0 895.3 -1 94
2019-11-17 03:00:00 -0.2 4 Noroeste 16 Nordeste 0 895.6 -1 94
2019-11-17 02:00:00 -0.2 5 Noroeste 16 Noroeste 0 895.9 -0.8 92
2019-11-17 01:00:00 -0.8 0 Calma 15 Norte 0 896.3 -0.6 94
2019-11-17 00:00:00 -1.3 0 Calma 14 Nordeste 0 896.6 -0.3 96
2019-11-16 23:00:00 -1.3 0 Calma 10 Noroeste 0 896.7 -0.3 96
2019-11-16 22:00:00 -0.9 2 Sur 17 Sudoeste 0 896.9 0 96
2019-11-16 21:00:00 -0.7 0 Calma 14 Nordeste 0 896.9 -0.1 95
2019-11-16 20:00:00 0.1 2 Sudeste 15 Sudeste 0 897 0.1 94
2019-11-16 19:00:00 0.7 4 Norte 17 Norte 0 896.9 0.1 89
2019-11-16 18:00:00 0.8 3 Noroeste 9 Norte 0 897 0.4 90
2019-11-16 17:00:00 1.3 3 Noroeste 14 Oeste 0 896.9 0.3 84
2019-11-16 16:00:00 2.2 2 Sur 15 Sudeste 0 896.8 0.2 74
2019-11-16 15:00:00 2.9 2 Noroeste 15 Sur 0 896.6 -0.3 70
2019-11-16 14:00:00 3.2 4 Sudeste 21 Este 0 896.6 -0.4 62
2019-11-16 13:00:00 3 7 Este 24 Este 0 896.6 -0.2 60
2019-11-16 12:00:00 2.3 3 Sudeste 17 Sudeste 0 896.9 0.1 70
2019-11-16 11:00:00 0.2 2 Oeste 19 Norte 0 897 1.1 77
2019-11-16 10:00:00 -1.7 6 Noroeste 15 Norte 0 896.8 1.8 84
2019-11-16 09:00:00 -4.4 5 Noroeste 21 Noroeste 0 896.8 2.4 89
2019-11-16 08:00:00 -5.1 2 Sudoeste 19 Norte 0 895.9 1.8 89
2019-11-16 07:00:00 -4.9 5 Noroeste 15 Norte 0 895 1.4 89
2019-11-16 06:00:00 -5 5 Noroeste 16 Norte 0 894.4 1.2 90
2019-11-16 05:00:00 -4.9 5 Noroeste 14 Sudoeste 0 894.1 1.5 92
2019-11-16 04:00:00 -4.6 5 Noroeste 20 Oeste 0 893.6 1.3 92
2019-11-16 03:00:00 -4.2 5 Noroeste 15 Noroeste 0 893.2 1.3 94
2019-11-16 02:00:00 -4 3 Norte 14 Nordeste 0 892.6 1.2 96
2019-11-16 01:00:00 -3.7 2 Noroeste 13 Nordeste 0 892.3 1.4 96
2019-11-16 00:00:00 -3.2 0 Calma 14 Nordeste 0 891.9 2.1 96
2019-11-15 23:00:00 -2.6 0 Calma 13 Noroeste 0 891.4 2.1 96
2019-11-15 22:00:00 -2.3 0 Calma 14 Nordeste 0 890.9 2.6 95
2019-11-15 21:00:00 -1.8 3 Noroeste 14 Nordeste 0 889.8 2.1 95
2019-11-15 20:00:00 -1.1 3 Sur 16 Sudeste 0.2 889.3 2.3 94
2019-11-15 19:00:00 -0.7 4 Noroeste 10 Noroeste 0 888.3 1.8 97
2019-11-15 18:00:00 0.1 0 Calma 14 Nordeste 0 887.7 1.6 96
2019-11-15 17:00:00 1.2 0 Calma 18 Este 0.2 887 1.1 93
2019-11-15 16:00:00 1.3 5 Norte 13 Noroeste 0.2 886.5 0.4 91
2019-11-15 15:00:00 1.7 2 Este 12 Sudeste 0.2 886.1 -0.4 90
2019-11-15 14:00:00 1.4 4 Sur 18 Este 0.2 885.9 -0.9 89
2019-11-15 13:00:00 1.7 6 Sudeste 23 Sur 0 886.1 -0.6 81
2019-11-15 12:00:00 2.1 5 Sudeste 14 Sur 0 886.5 -0.4 73
2019-11-15 11:00:00 0.5 2 Sudeste 6 Sur 0 886.8 0.2 79
2019-11-15 10:00:00 -0.6 3 Sudoeste 16 Sudoeste 0 886.7 0.3 85
2019-11-15 09:00:00 -2.2 0 Calma 8 Norte 0 886.9 0.5 93
2019-11-15 08:00:00 -3.3 3 Noroeste 13 Nordeste 0 886.6 0.4 92
2019-11-15 07:00:00 -3 4 Noroeste 14 Norte 0 886.4 0.3 89
2019-11-15 06:00:00 -3.3 3 Noroeste 15 Noroeste 0 886.4 0.1 90
2019-11-15 05:00:00 -3 4 Noroeste 23 Noroeste 0 886.2 0.4 91
2019-11-15 04:00:00 -2.4 8 Norte 17 Norte 0 886.1 0.5 90
2019-11-15 03:00:00 -2.6 5 Norte 18 Norte 0 886.3 0.9 92
2019-11-15 02:00:00 -2.4 3 Norte 9 Norte 0 885.8 0.9 93
2019-11-15 01:00:00 -1.6 3 Noroeste 22 Norte 0 885.6 0.8 91
2019-11-15 00:00:00 -1 6 Norte 19 Norte 0 885.4 0.6 95
2019-11-14 23:00:00 -0.4 2 Noroeste 19 Norte 0 884.9 0.7 90
2019-11-14 22:00:00 0.5 8 Norte 18 Norte 0 884.8 0.5 93
2019-11-14 21:00:00 0.2 2 Norte 7 Sudeste 0 884.8 0.9 98
2019-11-14 20:00:00 -0.2 0 Calma 14 Nordeste 0 884.2 0.9 97
2019-11-14 19:00:00 0.2 0 Calma 5 Oeste 0 884.3 1 97
2019-11-14 18:00:00 1.1 0 Calma 11 Norte 0 883.9 0.5 96
2019-11-14 17:00:00 1.9 2 Norte 13 Nordeste 0 883.3 -0.4 94
2019-11-14 16:00:00 1.8 3 Noroeste 6 Norte 0 883.3 -1 94
2019-11-14 15:00:00 2.3 3 Noroeste 13 Nordeste 0.2 883.4 -1.6 93
2019-11-14 14:00:00 3.9 0 Calma 10 Este 1.8 883.7 -1.6 82
2019-11-14 13:00:00 3.9 3 Sudeste 9 Sudeste 2.2 884.3 -2.4 83
2019-11-14 12:00:00 3.8 4 Oeste 23 Norte 2.4 885 -2 83
2019-11-14 11:00:00 1.7 7 Noroeste 18 Noroeste 2 885.3 -1.3 94
2019-11-14 10:00:00 1.2 7 Norte 31 Noroeste 1.6 886.7 -0.1 95
2019-11-14 09:00:00 1.1 13 Noroeste 31 Noroeste 1 887 -0.7 94
2019-11-14 08:00:00 0.5 3 Noroeste 14 Nordeste 1 886.6 -1.6 98
2019-11-14 07:00:00 0.4 2 Noroeste 6 Este 0.4 886.8 -2.7 98
2019-11-14 06:00:00 0.4 0 Calma 6 Noroeste 1 887.7 -2.5 98
2019-11-14 05:00:00 0.6 3 Noroeste 9 Noroeste 2.8 888.2 -3.3 98
2019-11-14 04:00:00 0.6 2 Noroeste 13 Este 3.8 889.5 -2.9 97
2019-11-14 03:00:00 0.8 7 Este 19 Norte 3.4 890.2 -3 96
2019-11-14 02:00:00 1 4 Norte 17 Norte 1 891.5 -2.6 91
2019-11-14 01:00:00 0.8 3 Nordeste 8 Noroeste 0 892.4 -2.5 83
2019-11-14 00:00:00 -0.3 3 Oeste 11 Norte 0 893.2 -2.1 84
2019-11-13 23:00:00 -0.7 0 Calma 16 Sudeste 0 894.1 -1.7 82
2019-11-13 22:00:00 -0.4 5 Noroeste 13 Norte 0 894.9 -0.4 79
2019-11-13 21:00:00 -0.6 0 Calma 9 Noroeste 0 895.3 0.1 82
2019-11-13 20:00:00 0.6 3 Oeste 17 Oeste 0 895.8 1.1 72
2019-11-13 19:00:00 0.9 3 Noroeste 13 Noroeste 0 895.3 0.7 76
2019-11-13 18:00:00 2.5 4 Noroeste 18 Oeste 0 895.2 0.8 71
2019-11-13 17:00:00 4.1 3 Noroeste 17 Noroeste 0 894.7 0.8 67
2019-11-13 16:00:00 7.3 7 Noroeste 36 Noroeste 0 894.6 0.7 40
2019-11-13 15:00:00 9.1 13 Noroeste 42 Noroeste 0 894.4 0.5 31
2019-11-13 14:00:00 11.7 16 Norte 39 Norte 0 893.9 0.6 23
2019-11-13 13:00:00 11.3 16 Noroeste 44 Noroeste 0 893.9 0.9 28
2019-11-13 12:00:00 11.5 17 Noroeste 36 Noroeste 0 893.9 2 37
2019-11-13 11:00:00 10.6 10 Noroeste 28 Noroeste 0 893.3 2.1 42
2019-11-13 10:00:00 4.2 3 Este 24 Este 0 893 2.1 78
2019-11-13 09:00:00 2.1 2 Sudeste 18 Sudeste 0 891.9 1.6 94
2019-11-13 08:00:00 1.3 0 Calma 13 Sudoeste 0 891.2 0.6 94
2019-11-13 07:00:00 1.2 2 Noroeste 16 Sudeste 0 890.9 -0.5 93
2019-11-13 06:00:00 1.3 2 Oeste 16 Sudeste 0 890.3 -1.4 90
2019-11-13 05:00:00 0.6 3 Noroeste 14 Sudoeste 0 890.6 -1.4 93
2019-11-13 04:00:00 0.7 2 Norte 13 Sudoeste 0 891.4 -1.1 93
2019-11-13 03:00:00 0 5 Noroeste 16 Sudeste 0 891.7 -1.4 97
2019-11-13 02:00:00 -0.1 3 Norte 14 Sudoeste 0 892 -1.7 96
2019-11-13 01:00:00 0.5 3 Noroeste 17 Sudoeste 0 892.5 -1.3 95
2019-11-13 00:00:00 1.5 2 Norte 14 Nordeste 0 893.1 -0.5 94
2019-11-12 23:00:00 1.8 0 Calma 14 Nordeste 0 893.7 0.2 92
2019-11-12 22:00:00 1.7 0 Calma 6 Noroeste 0 893.8 0 92
2019-11-12 21:00:00 2 2 Noroeste 6 Este 0 893.6 -0.4 89
2019-11-12 20:00:00 3 0 Calma 6 Noroeste 0 893.5 -0.8 85
2019-11-12 19:00:00 4.6 2 Norte 11 Norte 0 893.8 -1.1 78
2019-11-12 18:00:00 7 5 Noroeste 18 Noroeste 0 894 -1.4 62
2019-11-12 17:00:00 8.4 9 Noroeste 24 Noroeste 0 894.3 -1.4 53
2019-11-12 16:00:00 9.2 12 Noroeste 24 Noroeste 0 894.9 -1.2 47
2019-11-12 15:00:00 9.8 9 Noroeste 21 Noroeste 0 895.4 -1.3 44
2019-11-12 14:00:00 10 8 Noroeste 28 Noroeste 0 895.7 -1.1 44
2019-11-12 13:00:00 10.7 9 Noroeste 35 Noroeste 0 896.1 -1.2 42
2019-11-12 12:00:00 10.1 7 Noroeste 27 Noroeste 0 896.7 -0.8 43
2019-11-12 11:00:00 10.1 11 Noroeste 28 Noroeste 0 896.8 -0.8 38
2019-11-12 10:00:00 7.1 9 Noroeste 19 Oeste 0 897.3 -0.6 50
2019-11-12 09:00:00 3.4 0 Calma 20 Noroeste 0 897.5 -0.7 74
2019-11-12 08:00:00 0.9 2 Este 13 Nordeste 0 897.6 -0.7 86
2019-11-12 07:00:00 1.2 2 Noroeste 7 Sur 0 897.9 -0.5 82
2019-11-12 06:00:00 1.4 0 Calma 14 Sudoeste 0 898.2 0 79
2019-11-12 05:00:00 2.9 5 Noroeste 17 Noroeste 0 898.3 -0.2 66
2019-11-12 04:00:00 3.3 5 Noroeste 17 Noroeste 0 898.4 -0.5 61
2019-11-12 03:00:00 5.2 8 Norte 37 Norte 0 898.2 -1 49
2019-11-12 02:00:00 5.4 9 Noroeste 23 Noroeste 0 898.5 -0.9 50
2019-11-12 01:00:00 6 9 Noroeste 36 Noroeste 0 898.9 -0.1 46
2019-11-12 00:00:00 6.4 12 Noroeste 39 Oeste 0 899.2 0.4 44
2019-11-11 23:00:00 6.2 12 Noroeste 40 Noroeste 0 899.4 0.8 41
2019-11-11 22:00:00 7 11 Noroeste 35 Noroeste 0 899 1.3 45
2019-11-11 21:00:00 7.1 12 Noroeste 46 Oeste 0 898.8 2 43
2019-11-11 20:00:00 7.6 17 Noroeste 42 Noroeste 0 898.6 2 43
2019-11-11 19:00:00 8.1 11 Noroeste 38 Noroeste 0 897.7 1 48
2019-11-11 18:00:00 8.3 11 Noroeste 29 Noroeste 0 896.8 0.6 58
2019-11-11 17:00:00 6.7 3 Oeste 15 Sudoeste 0 896.6 0.5 79
2019-11-11 16:00:00 8 2 Este 19 Sudeste 0 896.7 -0.2 66
2019-11-11 15:00:00 9.7 6 Este 29 Noroeste 0 896.2 -1.4 43
2019-11-11 14:00:00 10.4 6 Sudeste 25 Sudeste 0 896.1 -1.9 40
2019-11-11 13:00:00 10.1 8 Este 17 Este 0 896.9 -1.6 37
2019-11-11 12:00:00 11.6 6 Sudeste 15 Este 0 897.6 -1.3 37
2019-11-11 11:00:00 8.2 0 Calma 18 Noroeste 0 898 -0.4 53
2019-11-11 10:00:00 5.1 5 Noroeste 17 Noroeste 0 898.5 -0.1 57
2019-11-11 09:00:00 3.7 7 Noroeste 26 Norte 0 898.9 0.3 55
2019-11-11 08:00:00 2.6 3 Oeste 27 Norte 0 898.4 -0.9 62
2019-11-11 07:00:00 2.8 9 Norte 33 Noroeste 0 898.6 -0.3 51
2019-11-11 06:00:00 2.7 10 Noroeste 27 Noroeste 0 898.6 -0.6 50
2019-11-11 05:00:00 2.3 15 Norte 31 Noroeste 0 899.3 -0.2 50
2019-11-11 04:00:00 2.5 12 Norte 35 Noroeste 0 898.9 -1.1 49
2019-11-11 03:00:00 2.3 14 Norte 35 Norte 0 899.2 -0.5 50
2019-11-11 02:00:00 1.6 8 Noroeste 24 Noroeste 0 899.5 -0.1 59
2019-11-11 01:00:00 2 8 Noroeste 25 Norte 0 900 0.8 57
2019-11-11 00:00:00 2.5 9 Noroeste 40 Norte 0 899.7 0.2 57
2019-11-10 23:00:00 3.7 15 Noroeste 40 Noroeste 0 899.6 0.7 48
2019-11-10 22:00:00 4.2 15 Noroeste 37 Noroeste 0 899.2 1.1 47
2019-11-10 21:00:00 4.5 12 Noroeste 36 Noroeste 0 899.5 2.6 46
2019-11-10 20:00:00 4.8 13 Noroeste 39 Oeste 0 898.9 2.8 46
2019-11-10 19:00:00 4.8 12 Noroeste 41 Noroeste 0 898.1 2.3 47
2019-11-10 18:00:00 5.1 14 Noroeste 41 Norte 0 896.9 1.5 49
2019-11-10 17:00:00 5.1 9 Noroeste 30 Noroeste 0 896.1 0.7 53
2019-11-10 16:00:00 6.4 10 Noroeste 28 Noroeste 0 895.8 0 46
2019-11-10 15:00:00 6.4 10 Noroeste 27 Noroeste 0 895.4 -1 49
2019-11-10 14:00:00 8.7 12 Noroeste 44 Noroeste 0 895.4 -1.1 36
2019-11-10 13:00:00 8.4 12 Noroeste 39 Noroeste 0 895.8 -0.8 37
2019-11-10 12:00:00 8 11 Noroeste 36 Noroeste 0 896.4 -0.1 40
2019-11-10 11:00:00 7.3 10 Noroeste 31 Noroeste 0 896.5 0.2 50
2019-11-10 10:00:00 4.5 4 Noroeste 11 Norte 0 896.6 0.2 65
2019-11-10 09:00:00 1.8 3 Norte 24 Norte 0 896.5 0.2 81
2019-11-10 08:00:00 1.7 8 Norte 28 Noroeste 0 896.3 -0.2 81
2019-11-10 07:00:00 0.8 2 Noroeste 30 Noroeste 0 896.4 -0.1 87
2019-11-10 06:00:00 2.1 12 Noroeste 38 Noroeste 0 896.3 -0.7 74
2019-11-10 05:00:00 1.7 6 Norte 36 Norte 0 896.5 0.3 80
2019-11-10 04:00:00 1.1 3 Noroeste 40 Norte 0.2 896.5 0.3 91
2019-11-10 03:00:00 3.7 10 Noroeste 44 Noroeste 0 897 0.1 59
2019-11-10 02:00:00 3.6 12 Noroeste 33 Noroeste 0 896.2 -1 68
2019-11-10 01:00:00 3.9 8 Norte 32 Noroeste 0 896.2 -0.9 82
2019-11-10 00:00:00 4.1 3 Norte 16 Norte 0.2 896.9 -0.5 95
2019-11-09 23:00:00 4.2 4 Noroeste 15 Sudoeste 0.4 897.2 -0.9 97
2019-11-09 22:00:00 4.3 2 Nordeste 5 Noroeste 0 897.1 -1.3 97
2019-11-09 21:00:00 4.4 2 Sudeste 6 Sur 0 897.4 -1.1 96
2019-11-09 20:00:00 4.7 2 Este 7 Este 0 898.1 -0.3 95
2019-11-09 19:00:00 4.8 3 Este 14 Sudoeste 0.2 898.4 -0.3 95
2019-11-09 18:00:00 5.2 0 Calma 14 Sudoeste 0.4 898.5 -0.4 92
2019-11-09 17:00:00 5.6 3 Noroeste 10 Norte 0 898.4 -0.9 87
2019-11-09 16:00:00 6 3 Noroeste 10 Noroeste 0 898.7 -1.3 89
2019-11-09 15:00:00 7.5 6 Este 23 Este 0 898.9 -1.9 68
2019-11-09 14:00:00 9.5 5 Sur 18 Sur 0 899.3 -1.8 66
2019-11-09 13:00:00 9.5 4 Sur 14 Sur 0 900 -1 67
2019-11-09 12:00:00 8 5 Sudeste 14 Sur 0 900.8 0.1 70
2019-11-09 11:00:00 5.5 4 Sudeste 18 Este 0 901.1 1 83
2019-11-09 10:00:00 3.4 4 Sudeste 15 Sudoeste 0 901 1 98
2019-11-09 09:00:00 1.4 3 Sudoeste 12 Sudoeste 0 900.7 0.7 98
2019-11-09 08:00:00 0.9 2 Noroeste 17 Sudeste 0 900.1 0.9 98
2019-11-09 07:00:00 1.1 2 Sur 15 Sudoeste 0 900 1.3 98
2019-11-09 06:00:00 1.4 0 Calma 13 Sudeste 0 900 1.3 98
2019-11-09 05:00:00 1.2 2 Este 15 Sudoeste 0 899.2 -0.1 98
2019-11-09 04:00:00 1.1 3 Noroeste 14 Sudoeste 0.2 898.7 -0.8 98
2019-11-09 03:00:00 1.1 4 Noroeste 9 Este 0 898.7 -0.8 98
2019-11-09 02:00:00 1 4 Noroeste 13 Sudeste 0.4 899.3 0.9 98
2019-11-09 01:00:00 0.8 2 Norte 7 Noroeste 0.6 899.5 1.1 98
2019-11-09 00:00:00 0.7 0 Calma 13 Sudoeste 1 899.5 1.6 98
2019-11-08 23:00:00 0.6 2 Noroeste 8 Noroeste 0.8 898.4 1.3 98
2019-11-08 22:00:00 0.6 0 Calma 13 Sudeste 0.4 898.4 1.7 98
2019-11-08 21:00:00 0.7 0 Calma 14 Sudeste 1 897.9 1.7 97
2019-11-08 20:00:00 1.1 2 Sudeste 13 Sudoeste 1.4 897.1 1.8 96
2019-11-08 19:00:00 1.4 2 Sudeste 5 Sur 0.6 896.7 2.2 95
2019-11-08 18:00:00 2 2 Oeste 16 Sudoeste 1.6 896.2 2.5 93
2019-11-08 17:00:00 2.8 4 Nordeste 9 Norte 0.2 895.3 2.4 93
2019-11-08 16:00:00 2.8 0 Calma 14 Sudeste 0.2 894.5 1.3 92
2019-11-08 15:00:00 2.4 5 Este 15 Sudoeste 2.2 893.7 0 89
2019-11-08 14:00:00 4.4 4 Este 24 Este 0.2 892.9 -1.1 82
2019-11-08 13:00:00 6.4 6 Sudeste 24 Sudeste 0 893.2 -0.7 69
2019-11-08 12:00:00 7.1 7 Sudeste 21 Sur 0 893.7 0.2 62
2019-11-08 11:00:00 4.6 4 Sudeste 13 Sur 0 894 0.8 71
2019-11-08 10:00:00 2.5 2 Nordeste 13 Nordeste 0 893.9 1.2 96
2019-11-08 09:00:00 1.3 2 Oeste 5 Noroeste 0 893.5 0.9 98
2019-11-08 08:00:00 0.8 0 Calma 14 Sudoeste 0 893.2 1.2 98
2019-11-08 07:00:00 0.6 0 Calma 16 Sudeste 0 892.7 0.8 98
2019-11-08 06:00:00 0.2 0 Calma 4 Norte 0 892.6 0.4 98
2019-11-08 05:00:00 0.6 0 Calma 6 Norte 0 892 -0.1 98
2019-11-08 04:00:00 0.7 2 Nordeste 10 Noroeste 0 891.9 -0.8 98
2019-11-08 03:00:00 1 3 Este 10 Este 0 892.2 -0.9 98
2019-11-08 02:00:00 0.8 2 Noroeste 14 Sudoeste 0 892.1 -1.1 97
2019-11-08 01:00:00 1.6 3 Noroeste 14 Sudoeste 0 892.7 -0.5 96
2019-11-08 00:00:00 2.3 0 Calma 4 Este 0 893.1 -0.1 94
2019-11-07 23:00:00 2.7 2 Noroeste 25 Este 0 893.2 -0.3 91
2019-11-07 22:00:00 3 6 Sudeste 21 Este 0 893.2 -0.2 87
2019-11-07 21:00:00 3.4 9 Sudeste 27 Este 0 893.2 0.3 84
2019-11-07 20:00:00 2.7 0 Calma 14 Sudeste 0 893.5 0.9 97
2019-11-07 19:00:00 3.1 0 Calma 14 Sudeste 0 893.4 0.7 95
2019-11-07 18:00:00 4 2 Norte 13 Sudoeste 0 892.9 0.2 94
2019-11-07 17:00:00 5.8 0 Calma 8 Este 0 892.6 -0.7 91
2019-11-07 16:00:00 6.8 2 Sur 16 Sudeste 0.2 892.7 -0.4 89
2019-11-07 15:00:00 7 4 Sudeste 10 Sur 0.2 892.7 -1 87
2019-11-07 14:00:00 6.7 3 Norte 17 Este 1.4 893.3 -0.8 90
2019-11-07 13:00:00 6.9 6 Sudeste 30 Este 0.4 893.1 -1 86
2019-11-07 12:00:00 7 10 Sudeste 25 Este 0 893.7 -0.5 83
2019-11-07 11:00:00 6.4 3 Sudeste 16 Sudeste 0 894.1 -0.2 89
2019-11-07 10:00:00 5.7 3 Sudeste 6 Sudeste 0 894.1 -0.5 92
2019-11-07 09:00:00 4.6 0 Calma 13 Norte 0 894.2 -1.1 94
2019-11-07 08:00:00 4 0 Calma 14 Norte 0 894.3 -1.3 96
2019-11-07 07:00:00 3.7 0 Calma 13 Nordeste 0.2 894.6 -1.4 96
2019-11-07 06:00:00 3.7 0 Calma 15 Sudoeste 0 895.3 -1.1 95
2019-11-07 05:00:00 3.5 2 Norte 14 Nordeste 0.2 895.6 -1.1 96
2019-11-07 04:00:00 3.6 2 Sudeste 15 Norte 0 896 -1.1 93
2019-11-07 03:00:00 3.2 0 Calma 17 Norte 0 896.4 -0.9 95
2019-11-07 02:00:00 2.6 3 Noroeste 13 Noroeste 0 896.7 -0.6 95
2019-11-07 01:00:00 2 0 Calma 15 Sudoeste 0 897.1 -0.8 95
2019-11-07 00:00:00 2.1 3 Noroeste 16 Norte 0 897.3 -0.7 94
2019-11-06 23:00:00 2.2 3 Noroeste 14 Noroeste 0 897.3 -0.7 94
2019-11-06 22:00:00 2.4 2 Noroeste 14 Sudoeste 0 897.9 -0.1 94
2019-11-06 21:00:00 3.2 2 Norte 14 Sudoeste 0 898 0.4 91
2019-11-06 20:00:00 3.6 3 Noroeste 15 Sudoeste 0 898 0.6 92
2019-11-06 19:00:00 3.6 3 Noroeste 14 Sudeste 0 898 0.8 89
2019-11-06 18:00:00 5.1 4 Noroeste 16 Sudoeste 0 897.6 -0.1 81
2019-11-06 17:00:00 7.5 8 Norte 19 Norte 0 897.4 -0.3 70
2019-11-06 16:00:00 9.2 5 Noroeste 14 Sudoeste 0 897.2 -1 70
2019-11-06 15:00:00 9.5 0 Calma 15 Noroeste 0 897.7 -0.7 66
2019-11-06 14:00:00 12.7 4 Oeste 16 Noroeste 0 897.7 -0.3 54
2019-11-06 13:00:00 11.5 5 Noroeste 20 Oeste 0 898.2 0.6 47
2019-11-06 12:00:00 10.9 5 Sudeste 13 Este 0 898.4 1.3 72
2019-11-06 11:00:00 8.7 5 Este 11 Este 0 898 1.3 79
2019-11-06 10:00:00 6.2 3 Sur 8 Sudoeste 0 897.6 1.4 96
2019-11-06 09:00:00 3.9 0 Calma 5 Este 0 897.1 0.9 98
2019-11-06 08:00:00 3.7 0 Calma 14 Sudeste 0.2 896.7 0.6 98
2019-11-06 07:00:00 3.7 4 Noroeste 15 Norte 0 896.2 0.4 98
2019-11-06 06:00:00 3.5 3 Sudoeste 17 Sudoeste 0.2 896.2 0.3 98
2019-11-06 05:00:00 3.7 3 Oeste 17 Sudeste 0.4 896.1 0.6 98
2019-11-06 04:00:00 4 3 Sudeste 14 Sudeste 0.8 895.8 0.3 97
2019-11-06 03:00:00 3.8 2 Sur 15 Oeste 0.6 895.9 0.9 97
2019-11-06 02:00:00 3.6 2 Sudoeste 13 Nordeste 0.4 895.5 0.7 98
2019-11-06 01:00:00 3.4 3 Nordeste 15 Sur 0 895.5 0.5 98
2019-11-06 00:00:00 3.1 3 Sur 6 Este 0.2 895 0.3 97